Time;durP1;ratioP1;P1;durP2;ratioP2;P2;SDS_P1;SDS_P2;PMS_P1;PMS_P2;Temp;Humidity;BMP_temperature;BMP_pressure;BME280_temperature;BME280_humidity;BME280_pressure;Samples;Min_cycle;Max_cycle;Signal;HPM_P1;HPM_P2
2023/12/31 00:00:31;;;;;;;192.20;70.80;;;;;;;10.89;nan;99226.69;4844310;29;20146;-66
2023/12/31 00:03:01;;;;;;;189.85;72.28;;;;;;;10.88;nan;99227.69;4845796;29;20087;-68
2023/12/31 00:05:31;;;;;;;192.02;71.95;;;;;;;10.87;nan;99228.69;4843133;29;20056;-66
2023/12/31 00:08:00;;;;;;;190.48;71.00;;;;;;;11.08;nan;99232.25;4837101;29;20503;-67
2023/12/31 00:10:29;;;;;;;190.23;72.10;;;;;;;10.92;nan;99234.25;4843283;29;20516;-67
2023/12/31 00:12:59;;;;;;;197.88;72.38;;;;;;;11.04;nan;99235.44;4846145;29;20050;-67
2023/12/31 00:15:29;;;;;;;194.57;72.45;;;;;;;11.18;nan;99240.75;4835589;29;20526;-68
2023/12/31 00:17:58;;;;;;;179.63;69.50;;;;;;;10.97;nan;99237.19;4836878;29;20046;-69
2023/12/31 00:20:28;;;;;;;175.27;66.05;;;;;;;10.92;nan;99242.22;4844883;29;20053;-68
2023/12/31 00:22:57;;;;;;;173.25;65.75;;;;;;;10.89;nan;99238.09;4840755;29;20380;-66
2023/12/31 00:25:26;;;;;;;186.68;68.35;;;;;;;10.94;nan;99240.19;4847293;29;20081;-65
2023/12/31 00:27:56;;;;;;;175.27;66.35;;;;;;;10.95;nan;99242.66;4854758;29;20076;-67
2023/12/31 00:30:27;;;;;;;177.57;68.00;;;;;;;11.10;nan;99242.69;4848739;29;20073;-66
2023/12/31 00:32:57;;;;;;;181.77;67.95;;;;;;;11.17;nan;99243.59;4841898;29;20053;-67
2023/12/31 00:35:27;;;;;;;184.65;71.82;;;;;;;11.04;nan;99240.75;4842027;29;20076;-67
2023/12/31 00:37:57;;;;;;;170.02;66.10;;;;;;;11.19;nan;99246.91;4852795;29;20064;-67
2023/12/31 00:40:28;;;;;;;178.23;68.78;;;;;;;11.00;nan;99235.00;4845881;29;20046;-67
2023/12/31 00:42:58;;;;;;;182.13;67.55;;;;;;;11.13;nan;99245.78;4833734;29;20149;-67
2023/12/31 00:45:28;;;;;;;182.20;67.07;;;;;;;10.87;nan;99240.09;4844504;29;20049;-66
2023/12/31 00:47:57;;;;;;;166.45;67.18;;;;;;;10.88;nan;99248.88;4835848;29;20622;-67
2023/12/31 00:50:27;;;;;;;168.18;64.32;;;;;;;10.89;nan;99247.88;4842447;29;20126;-67
2023/12/31 00:52:57;;;;;;;152.48;58.97;;;;;;;10.81;nan;99241.66;4845134;29;20146;-67
2023/12/31 00:55:26;;;;;;;158.68;60.83;;;;;;;10.79;nan;99262.22;4819610;29;20080;-66
2023/12/31 00:57:55;;;;;;;169.45;65.47;;;;;;;10.81;nan;99260.19;4834135;29;20050;-67
2023/12/31 01:00:25;;;;;;;160.73;62.85;;;;;;;10.89;nan;99255.84;4832089;29;20081;-67
2023/12/31 01:02:54;;;;;;;159.95;61.83;;;;;;;10.77;nan;99268.69;4847322;29;20142;-67
2023/12/31 01:05:24;;;;;;;155.48;60.10;;;;;;;10.70;nan;99268.59;4835923;29;20060;-67
2023/12/31 01:07:54;;;;;;;143.48;60.08;;;;;;;10.76;nan;99267.84;4833067;29;20046;-67
2023/12/31 01:10:24;;;;;;;152.27;61.95;;;;;;;10.78;nan;99270.34;4831740;29;20057;-67
2023/12/31 01:12:54;;;;;;;160.15;62.42;;;;;;;10.81;nan;99277.91;4837858;29;20094;-67
2023/12/31 01:15:23;;;;;;;131.10;56.72;;;;;;;10.77;nan;99288.06;4838269;29;20061;-67
2023/12/31 01:17:52;;;;;;;154.43;61.92;;;;;;;10.78;nan;99288.88;4834299;29;20746;-67
2023/12/31 01:20:22;;;;;;;157.13;59.88;;;;;;;10.82;nan;99283.03;4833658;29;20050;-67
2023/12/31 01:22:51;;;;;;;153.68;59.15;;;;;;;10.84;nan;99290.81;4847740;29;20510;-68
2023/12/31 01:25:21;;;;;;;149.73;61.05;;;;;;;10.81;nan;99285.84;4841970;29;20145;-69
2023/12/31 01:27:53;;;;;;;155.70;58.08;;;;;;;10.82;nan;99296.28;4832764;29;20586;-69
2023/12/31 01:30:23;;;;;;;154.90;61.92;;;;;;;10.65;nan;99299.25;4814226;29;20050;-69
2023/12/31 01:32:53;;;;;;;166.23;63.67;;;;;;;10.65;nan;99300.09;4829881;29;20363;-69
2023/12/31 01:35:22;;;;;;;156.18;61.05;;;;;;;10.67;nan;99313.97;4838418;29;20060;-69
2023/12/31 01:37:52;;;;;;;152.98;59.33;;;;;;;10.88;nan;99315.13;4843451;29;20053;-69
2023/12/31 01:40:21;;;;;;;148.63;59.58;;;;;;;10.81;nan;99315.84;4829694;29;20657;-70
2023/12/31 01:42:51;;;;;;;154.05;59.47;;;;;;;10.87;nan;99318.78;4835756;29;20069;-69
2023/12/31 01:45:20;;;;;;;137.07;57.95;;;;;;;10.64;nan;99324.91;4837128;29;20599;-69
2023/12/31 01:47:51;;;;;;;148.35;58.55;;;;;;;10.65;nan;99323.91;4831270;29;20054;-69
2023/12/31 01:50:22;;;;;;;153.82;59.95;;;;;;;10.59;nan;99329.91;4829420;29;20050;-69
2023/12/31 01:52:52;;;;;;;146.55;57.85;;;;;;;10.63;nan;99325.91;4840644;29;20079;-69
2023/12/31 01:55:22;;;;;;;146.30;57.60;;;;;;;10.67;nan;99313.13;4846062;29;20057;-69
2023/12/31 01:57:53;;;;;;;140.15;56.92;;;;;;;10.63;nan;99323.25;4830616;29;20061;-69
2023/12/31 02:00:26;;;;;;;141.70;57.33;;;;;;;10.74;nan;99322.84;4829941;29;20172;-69
2023/12/31 02:02:59;;;;;;;148.25;57.67;;;;;;;10.62;nan;99331.41;4832047;29;20383;-69
2023/12/31 02:05:30;;;;;;;141.27;56.15;;;;;;;10.55;nan;99317.22;4834034;29;20050;-69
2023/12/31 02:07:59;;;;;;;146.10;56.05;;;;;;;10.70;nan;99332.16;4831700;29;20050;-69
2023/12/31 02:10:29;;;;;;;142.25;58.85;;;;;;;10.70;nan;99337.47;4844400;29;20082;-69
2023/12/31 02:12:58;;;;;;;152.95;57.00;;;;;;;10.66;nan;99346.78;4843892;29;20057;-69
2023/12/31 02:15:35;;;;;;;132.93;56.60;;;;;;;10.58;nan;99346.81;4848684;29;20061;-69
2023/12/31 02:18:05;;;;;;;139.43;57.22;;;;;;;10.63;nan;99356.88;4838628;29;20122;-69
2023/12/31 02:20:35;;;;;;;135.65;55.75;;;;;;;10.94;nan;99360.28;4833642;29;20053;-69
2023/12/31 02:23:05;;;;;;;146.77;57.83;;;;;;;10.67;nan;99361.63;4833679;29;20046;-68
2023/12/31 02:25:41;;;;;;;149.57;56.47;;;;;;;10.66;nan;99365.31;4828587;29;20138;-68
2023/12/31 02:28:15;;;;;;;143.45;57.35;;;;;;;10.60;nan;99366.00;4831196;29;20491;-68
2023/12/31 02:30:45;;;;;;;127.10;56.05;;;;;;;10.67;nan;99359.00;4834853;29;20427;-68
2023/12/31 02:33:15;;;;;;;142.77;55.28;;;;;;;10.66;nan;99367.97;4835933;29;20057;-68
2023/12/31 02:35:44;;;;;;;133.30;55.03;;;;;;;10.65;nan;99370.78;4842555;29;20729;-68
2023/12/31 02:38:15;;;;;;;152.98;58.05;;;;;;;10.67;nan;99374.88;4830960;29;20541;-68
2023/12/31 02:40:45;;;;;;;136.63;54.60;;;;;;;10.88;nan;99376.06;4832046;29;20053;-68
2023/12/31 02:43:14;;;;;;;149.75;59.08;;;;;;;10.94;nan;99378.81;4833524;29;20049;-68
2023/12/31 02:45:43;;;;;;;154.20;59.58;;;;;;;10.92;nan;99380.00;4839309;29;20050;-68
2023/12/31 02:48:13;;;;;;;143.88;57.40;;;;;;;10.80;nan;99387.53;4839596;29;20054;-68
2023/12/31 02:50:43;;;;;;;153.13;56.95;;;;;;;10.73;nan;99392.72;4829723;29;20049;-69
2023/12/31 02:53:12;;;;;;;140.80;55.70;;;;;;;10.76;nan;99397.66;4835540;29;20049;-68
2023/12/31 02:55:42;;;;;;;137.25;54.63;;;;;;;10.92;nan;99393.25;4840137;29;20049;-67
2023/12/31 02:58:12;;;;;;;142.45;54.13;;;;;;;10.89;nan;99394.44;4832814;29;20057;-68
2023/12/31 03:00:42;;;;;;;137.10;56.97;;;;;;;10.88;nan;99402.56;4834324;29;20558;-68
2023/12/31 03:03:12;;;;;;;154.05;57.00;;;;;;;11.19;nan;99400.66;4836186;29;20046;-68
2023/12/31 03:05:42;;;;;;;145.20;55.80;;;;;;;10.82;nan;99404.94;4824497;29;20122;-66
2023/12/31 03:08:11;;;;;;;133.85;56.08;;;;;;;10.84;nan;99409.22;4832472;29;20053;-68
2023/12/31 03:10:41;;;;;;;140.35;53.17;;;;;;;11.13;nan;99411.97;4829804;29;20816;-68
2023/12/31 03:13:11;;;;;;;126.50;55.08;;;;;;;11.35;nan;99415.59;4829029;29;20057;-68
2023/12/31 03:15:43;;;;;;;143.73;57.90;;;;;;;11.41;nan;99421.00;4839680;29;20045;-69
2023/12/31 03:18:12;;;;;;;130.90;52.88;;;;;;;11.23;nan;99418.69;4834224;29;20060;-68
2023/12/31 03:20:42;;;;;;;127.82;53.58;;;;;;;10.98;nan;99434.94;4828199;29;20050;-68
2023/12/31 03:23:15;;;;;;;125.85;51.88;;;;;;;10.88;nan;99429.06;4832585;29;20153;-68
2023/12/31 03:25:45;;;;;;;126.40;52.22;;;;;;;10.87;nan;99424.75;4838472;29;20053;-68
2023/12/31 03:28:15;;;;;;;129.57;52.53;;;;;;;10.97;nan;99442.09;4848287;29;20080;-68
2023/12/31 03:30:44;;;;;;;116.10;49.17;;;;;;;10.86;nan;99447.78;4838674;29;20049;-69
2023/12/31 03:33:15;;;;;;;130.60;52.30;;;;;;;11.05;nan;99451.81;4834055;29;20062;-68
2023/12/31 03:35:44;;;;;;;125.20;53.05;;;;;;;11.13;nan;99457.03;4842267;29;20757;-69
2023/12/31 03:38:14;;;;;;;121.93;51.25;;;;;;;11.13;nan;99455.22;4833993;29;20157;-68
2023/12/31 03:40:43;;;;;;;120.00;51.92;;;;;;;10.88;nan;99458.22;4833233;29;20062;-69
2023/12/31 03:43:13;;;;;;;123.72;51.38;;;;;;;10.91;nan;99458.69;4837326;29;20050;-68
2023/12/31 03:45:42;;;;;;;125.75;52.92;;;;;;;10.86;nan;99462.84;4828775;29;20455;-68
2023/12/31 03:48:12;;;;;;;133.13;52.72;;;;;;;10.85;nan;99466.50;4832050;29;20054;-68
2023/12/31 03:50:42;;;;;;;127.05;53.70;;;;;;;10.82;nan;99465.88;4829189;29;20046;-68
2023/12/31 03:53:11;;;;;;;125.82;52.70;;;;;;;10.89;nan;99468.63;4838731;29;20081;-68
2023/12/31 03:55:41;;;;;;;125.13;52.33;;;;;;;11.03;nan;99469.69;4837768;29;20162;-68
2023/12/31 03:58:11;;;;;;;131.48;53.35;;;;;;;10.92;nan;99475.41;4827424;29;20133;-68
2023/12/31 04:00:40;;;;;;;129.63;51.50;;;;;;;10.99;nan;99477.19;4844417;29;20045;-68
2023/12/31 04:03:10;;;;;;;136.93;56.22;;;;;;;10.78;nan;99475.16;4839566;29;20046;-68
2023/12/31 04:05:40;;;;;;;142.48;54.72;;;;;;;10.79;nan;99483.94;4841437;29;20145;-68
2023/12/31 04:08:10;;;;;;;127.47;53.67;;;;;;;11.10;nan;99483.91;4850350;29;20466;-68
2023/12/31 04:10:40;;;;;;;137.65;57.60;;;;;;;11.22;nan;99485.13;4850163;29;20075;-69
2023/12/31 04:13:10;;;;;;;133.38;55.20;;;;;;;11.09;nan;99493.69;4840862;29;20054;-69
2023/12/31 04:15:40;;;;;;;125.93;52.42;;;;;;;11.08;nan;99494.69;4837723;29;20061;-69
2023/12/31 04:18:09;;;;;;;138.27;53.50;;;;;;;10.91;nan;99501.09;4828160;29;20540;-68
2023/12/31 04:20:39;;;;;;;118.80;50.10;;;;;;;11.25;nan;99501.50;4830945;29;20275;-68
2023/12/31 04:23:08;;;;;;;130.43;54.45;;;;;;;11.35;nan;99503.94;4844365;29;20219;-69
2023/12/31 04:25:38;;;;;;;131.27;54.53;;;;;;;11.36;nan;99510.88;4835832;29;20046;-68
2023/12/31 04:28:07;;;;;;;141.77;55.58;;;;;;;11.24;nan;99517.63;4825505;29;20543;-69
2023/12/31 04:30:40;;;;;;;117.65;52.58;;;;;;;11.08;nan;99515.06;4812678;29;20046;-68
2023/12/31 04:33:09;;;;;;;119.95;53.00;;;;;;;11.39;nan;99525.59;4827740;29;20054;-69
2023/12/31 04:35:40;;;;;;;131.48;54.65;;;;;;;11.26;nan;99527.03;4838411;29;20049;-69
2023/12/31 04:38:10;;;;;;;133.05;53.80;;;;;;;11.26;nan;99534.16;4848034;29;20060;-69
2023/12/31 04:40:40;;;;;;;126.93;51.53;;;;;;;11.25;nan;99535.16;4838106;29;20125;-69
2023/12/31 04:43:10;;;;;;;122.90;52.33;;;;;;;11.40;nan;99535.22;4834715;29;20060;-69
2023/12/31 04:45:40;;;;;;;121.53;52.75;;;;;;;11.30;nan;99534.63;4838346;29;20397;-70
2023/12/31 04:48:09;;;;;;;126.05;50.65;;;;;;;11.42;nan;99535.88;4848298;29;20053;-69
2023/12/31 04:50:39;;;;;;;129.32;52.53;;;;;;;11.13;nan;99540.03;4832151;29;20746;-69
2023/12/31 04:53:08;;;;;;;125.05;52.78;;;;;;;11.47;nan;99549.41;4834231;29;20428;-69
2023/12/31 04:55:37;;;;;;;135.10;53.45;;;;;;;11.27;nan;99535.81;4835595;29;20452;-68
2023/12/31 04:58:07;;;;;;;120.80;51.58;;;;;;;11.36;nan;99550.66;4831510;29;20118;-69
2023/12/31 05:00:36;;;;;;;126.45;53.65;;;;;;;11.43;nan;99542.81;4834620;29;20134;-68
2023/12/31 05:03:06;;;;;;;116.57;50.05;;;;;;;11.42;nan;99531.38;4841863;29;20086;-69
2023/12/31 05:05:35;;;;;;;123.05;52.65;;;;;;;11.52;nan;99539.09;4842881;29;20057;-69
2023/12/31 05:08:05;;;;;;;126.88;52.42;;;;;;;11.64;nan;99538.50;4832233;29;20169;-70
2023/12/31 05:10:37;;;;;;;124.40;51.17;;;;;;;11.59;nan;99546.19;4831970;29;20080;-69
2023/12/31 05:13:06;;;;;;;115.43;50.78;;;;;;;11.61;nan;99544.16;4835922;29;20137;-69
2023/12/31 05:15:36;;;;;;;131.50;52.40;;;;;;;11.69;nan;99546.75;4839511;29;20053;-69
2023/12/31 05:18:06;;;;;;;131.32;53.47;;;;;;;11.69;nan;99549.41;4834737;29;20057;-68
2023/12/31 05:20:35;;;;;;;131.45;53.22;;;;;;;11.62;nan;99545.81;4841038;29;20464;-69
2023/12/31 05:23:05;;;;;;;137.18;53.35;;;;;;;11.42;nan;99543.84;4839191;29;20082;-69
2023/12/31 05:25:34;;;;;;;123.57;50.78;;;;;;;11.52;nan;99550.53;4831678;29;20546;-68
2023/12/31 05:28:04;;;;;;;128.15;52.53;;;;;;;11.61;nan;99552.13;4846472;29;20077;-69
2023/12/31 05:30:34;;;;;;;127.57;55.15;;;;;;;11.51;nan;99551.53;4818225;29;20046;-70
2023/12/31 05:33:04;;;;;;;123.05;52.10;;;;;;;11.82;nan;99545.34;4833445;29;20057;-69
2023/12/31 05:35:34;;;;;;;137.38;54.75;;;;;;;11.63;nan;99550.13;4835461;29;20719;-69
2023/12/31 05:38:03;;;;;;;134.90;55.45;;;;;;;11.59;nan;99548.84;4850114;29;20436;-69
2023/12/31 05:40:33;;;;;;;142.82;58.38;;;;;;;11.95;nan;99550.88;4833389;29;20454;-68
2023/12/31 05:43:02;;;;;;;139.27;56.17;;;;;;;12.11;nan;99537.44;4828611;29;20082;-68
2023/12/31 05:45:32;;;;;;;134.52;55.75;;;;;;;11.69;nan;99538.78;4832588;29;20057;-67
2023/12/31 05:48:02;;;;;;;139.02;56.45;;;;;;;11.59;nan;99540.88;4831589;29;20440;-68
2023/12/31 05:50:32;;;;;;;142.73;55.20;;;;;;;11.53;nan;99535.44;4831661;29;20407;-67
2023/12/31 05:53:01;;;;;;;146.23;55.15;;;;;;;11.79;nan;99532.44;4839119;29;20423;-67
2023/12/31 05:55:31;;;;;;;137.40;56.30;;;;;;;11.63;nan;99528.09;4827836;29;20716;-67
2023/12/31 05:58:01;;;;;;;137.65;56.88;;;;;;;11.86;nan;99528.88;4831629;29;20173;-67
2023/12/31 06:00:30;;;;;;;135.50;55.90;;;;;;;11.75;nan;99518.72;4826055;29;20638;-66
2023/12/31 06:03:00;;;;;;;129.85;54.92;;;;;;;12.07;nan;99518.41;4835129;29;20045;-66
2023/12/31 06:05:30;;;;;;;137.98;56.55;;;;;;;12.35;nan;99517.75;4829678;29;20073;-67
2023/12/31 06:07:59;;;;;;;135.68;56.25;;;;;;;12.18;nan;99519.75;4832910;29;20646;-65
2023/12/31 06:10:29;;;;;;;132.13;54.97;;;;;;;11.89;nan;99515.25;4830118;29;20232;-65
2023/12/31 06:12:58;;;;;;;136.82;56.05;;;;;;;12.19;nan;99518.75;4829297;29;20631;-66
2023/12/31 06:15:27;;;;;;;131.50;55.17;;;;;;;11.74;nan;99522.38;4825689;29;20053;-66
2023/12/31 06:17:57;;;;;;;133.20;56.90;;;;;;;12.13;nan;99515.00;4822889;29;20056;-66
2023/12/31 06:20:26;;;;;;;140.25;54.50;;;;;;;12.07;nan;99517.56;4827978;29;20053;-67
2023/12/31 06:22:56;;;;;;;135.25;58.13;;;;;;;12.16;nan;99519.13;4829403;29;20172;-66
2023/12/31 06:25:25;;;;;;;131.68;57.35;;;;;;;12.02;nan;99509.31;4825326;29;20057;-68
2023/12/31 06:27:56;;;;;;;144.07;58.97;;;;;;;12.51;nan;99510.44;4827182;29;20057;-66
2023/12/31 06:30:26;;;;;;;149.13;59.83;;;;;;;12.19;nan;99502.00;4827885;29;20627;-66
2023/12/31 06:32:56;;;;;;;138.50;56.88;;;;;;;12.29;nan;99500.72;4828926;29;20049;-66
2023/12/31 06:35:25;;;;;;;150.32;61.17;;;;;;;12.45;nan;99503.19;4821751;29;20061;-68
2023/12/31 06:37:54;;;;;;;135.77;56.58;;;;;;;12.30;nan;99491.75;4824482;29;20465;-68
2023/12/31 06:40:24;;;;;;;137.88;58.22;;;;;;;12.36;nan;99491.00;4828777;29;20053;-68
2023/12/31 06:42:53;;;;;;;139.70;57.13;;;;;;;12.36;nan;99485.69;4826741;29;20106;-68
2023/12/31 06:45:23;;;;;;;132.02;58.35;;;;;;;12.39;nan;99484.53;4828609;29;20046;-68
2023/12/31 06:47:52;;;;;;;143.65;58.15;;;;;;;12.15;nan;99475.81;4827001;29;20127;-68
2023/12/31 06:50:22;;;;;;;142.07;60.97;;;;;;;12.23;nan;99469.59;4823909;29;20883;-69
2023/12/31 06:52:51;;;;;;;136.48;57.45;;;;;;;12.36;nan;99466.28;4840143;29;20403;-67
2023/12/31 06:55:21;;;;;;;142.77;58.25;;;;;;;12.23;nan;99455.47;4825372;29;20054;-67
2023/12/31 06:57:51;;;;;;;133.15;59.45;;;;;;;12.32;nan;99463.16;4829736;29;20057;-68
2023/12/31 07:00:22;;;;;;;136.73;57.65;;;;;;;12.16;nan;99460.72;4828377;29;20078;-68
2023/12/31 07:02:52;;;;;;;132.13;57.20;;;;;;;12.34;nan;99447.88;4827336;29;20050;-67
2023/12/31 07:05:21;;;;;;;133.25;55.22;;;;;;;12.50;nan;99445.00;4832629;29;22867;-67
2023/12/31 07:07:51;;;;;;;130.05;53.53;;;;;;;12.66;nan;99443.16;4836314;29;20872;-67
2023/12/31 07:10:21;;;;;;;126.97;55.35;;;;;;;12.48;nan;99435.59;4830335;29;20057;-68
2023/12/31 07:12:52;;;;;;;125.45;54.38;;;;;;;12.48;nan;99431.06;4834444;29;20134;-67
2023/12/31 07:15:22;;;;;;;126.18;56.65;;;;;;;12.62;nan;99426.72;4831261;29;20089;-66
2023/12/31 07:17:51;;;;;;;135.73;58.42;;;;;;;12.61;nan;99428.56;4833910;29;20158;-66
2023/12/31 07:20:21;;;;;;;140.20;60.92;;;;;;;12.69;nan;99427.66;4834835;29;20054;-66
2023/12/31 07:22:52;;;;;;;135.32;60.83;;;;;;;12.73;nan;99420.13;4833541;29;20068;-66
2023/12/31 07:25:25;;;;;;;150.30;62.90;;;;;;;12.81;nan;99425.31;4833263;29;20482;-65
2023/12/31 07:27:58;;;;;;;134.40;57.80;;;;;;;12.86;nan;99418.41;4828817;29;20057;-66
2023/12/31 07:30:28;;;;;;;127.57;55.83;;;;;;;12.71;nan;99412.31;4830607;29;20129;-66
2023/12/31 07:32:57;;;;;;;120.25;54.60;;;;;;;12.92;nan;99407.00;4811223;29;20587;-67
2023/12/31 07:35:27;;;;;;;139.35;57.80;;;;;;;12.94;nan;99409.47;4824046;29;20058;-67
2023/12/31 07:37:57;;;;;;;137.00;61.22;;;;;;;12.95;nan;99408.47;4824054;29;20126;-65
2023/12/31 07:40:26;;;;;;;144.30;59.75;;;;;;;12.94;nan;99399.69;4826060;29;20164;-64
2023/12/31 07:42:56;;;;;;;133.85;57.92;;;;;;;12.99;nan;99394.63;4827428;29;20057;-65
2023/12/31 07:45:26;;;;;;;146.38;61.95;;;;;;;13.11;nan;99392.28;4828130;29;20058;-66
2023/12/31 07:47:56;;;;;;;137.45;59.25;;;;;;;13.19;nan;99381.50;4827134;29;20096;-68
2023/12/31 07:50:25;;;;;;;122.65;56.58;;;;;;;12.96;nan;99388.88;4827066;29;20262;-67
2023/12/31 07:52:55;;;;;;;121.45;55.45;;;;;;;13.17;nan;99383.56;4830313;29;20054;-66
2023/12/31 07:55:24;;;;;;;120.47;55.72;;;;;;;13.39;nan;99379.00;4829800;29;20061;-65
2023/12/31 07:57:54;;;;;;;121.30;54.83;;;;;;;13.22;nan;99370.50;4827800;29;20050;-68
2023/12/31 08:00:24;;;;;;;123.13;53.58;;;;;;;13.47;nan;99360.22;4826891;29;20142;-66
2023/12/31 08:02:53;;;;;;;124.63;54.38;;;;;;;13.65;nan;99355.22;4830060;29;20045;-67
2023/12/31 08:05:22;;;;;;;128.82;59.25;;;;;;;13.33;nan;99356.66;4827496;29;20053;-68
2023/12/31 08:07:52;;;;;;;122.25;55.92;;;;;;;13.54;nan;99342.47;4829771;29;20501;-67
2023/12/31 08:10:22;;;;;;;133.07;59.28;;;;;;;13.61;nan;99342.50;4826814;29;20057;-68
2023/12/31 08:12:51;;;;;;;129.48;57.58;;;;;;;13.91;nan;99343.88;4828714;29;20050;-67
2023/12/31 08:15:21;;;;;;;112.90;51.88;;;;;;;13.91;nan;99344.72;4806838;29;21708;-64
2023/12/31 08:17:50;;;;;;;123.40;54.08;;;;;;;13.58;nan;99333.09;4828061;29;20118;-67
2023/12/31 08:20:20;;;;;;;120.03;56.55;;;;;;;13.90;nan;99326.25;4828146;29;20534;-66
2023/12/31 08:22:52;;;;;;;118.65;53.35;;;;;;;14.01;nan;99323.03;4828362;29;20886;-65
2023/12/31 08:25:25;;;;;;;133.20;57.75;;;;;;;13.92;nan;99316.25;4827688;29;20058;-68
2023/12/31 08:27:55;;;;;;;127.05;54.92;;;;;;;13.72;nan;99318.00;4828864;29;20592;-67
2023/12/31 08:30:25;;;;;;;136.20;59.53;;;;;;;13.90;nan;99307.63;4837287;29;20054;-64
2023/12/31 08:32:54;;;;;;;130.77;60.42;;;;;;;14.02;nan;99305.22;4830205;29;20156;-67
2023/12/31 08:35:26;;;;;;;132.20;57.03;;;;;;;13.74;nan;99298.16;4825907;29;20053;-64
2023/12/31 08:37:55;;;;;;;129.10;56.90;;;;;;;13.63;nan;99293.38;4828762;29;20057;-66
2023/12/31 08:40:27;;;;;;;117.82;55.13;;;;;;;13.96;nan;99298.84;4827334;29;20050;-68
2023/12/31 08:42:57;;;;;;;120.63;55.58;;;;;;;14.07;nan;99292.97;4830198;29;20104;-67
2023/12/31 08:45:26;;;;;;;115.35;52.05;;;;;;;13.90;nan;99281.00;4832704;29;20785;-67
2023/12/31 08:47:55;;;;;;;114.43;52.60;;;;;;;14.15;nan;99284.78;4828614;29;20150;-68
2023/12/31 08:50:25;;;;;;;110.57;51.40;;;;;;;14.22;nan;99280.28;4827831;29;20054;-67
2023/12/31 08:52:55;;;;;;;124.43;54.33;;;;;;;14.04;nan;99279.19;4830824;29;20125;-67
2023/12/31 08:55:24;;;;;;;115.40;56.40;;;;;;;14.02;nan;99273.25;4828821;29;20045;-66
2023/12/31 08:57:54;;;;;;;112.10;52.83;;;;;;;13.78;nan;99269.28;4837473;29;20049;-66
2023/12/31 09:00:23;;;;;;;117.47;55.38;;;;;;;13.91;nan;99264.00;4830081;29;20461;-66
2023/12/31 09:02:52;;;;;;;109.43;50.83;;;;;;;13.91;nan;99253.34;4832139;29;20477;-66
2023/12/31 09:05:22;;;;;;;109.75;51.25;;;;;;;13.69;nan;99254.50;4832066;29;20061;-67
2023/12/31 09:07:52;;;;;;;120.75;56.00;;;;;;;13.90;nan;99255.19;4829277;29;20058;-69
2023/12/31 09:10:21;;;;;;;103.95;51.13;;;;;;;13.93;nan;99256.66;4819477;29;20173;-68
2023/12/31 09:12:51;;;;;;;103.70;48.92;;;;;;;14.12;nan;99255.03;4828891;29;20056;-69
2023/12/31 09:15:20;;;;;;;106.40;49.83;;;;;;;14.11;nan;99254.25;4829848;29;20057;-67
2023/12/31 09:17:50;;;;;;;100.25;48.55;;;;;;;14.04;nan;99258.72;4831281;29;20050;-68
2023/12/31 09:20:21;;;;;;;104.78;48.88;;;;;;;13.99;nan;99255.81;4831830;29;20852;-67
2023/12/31 09:22:53;;;;;;;107.72;50.00;;;;;;;13.89;nan;99255.41;4833225;29;20483;-67
2023/12/31 09:25:22;;;;;;;115.20;53.13;;;;;;;13.80;nan;99252.09;4830049;29;20058;-66
2023/12/31 09:27:52;;;;;;;115.63;51.13;;;;;;;13.91;nan;99248.84;4835295;29;20046;-67
2023/12/31 09:30:21;;;;;;;100.75;48.70;;;;;;;13.92;nan;99249.69;4824874;29;20148;-67
2023/12/31 09:32:51;;;;;;;98.78;47.33;;;;;;;13.68;nan;99250.19;4831438;29;20555;-69
2023/12/31 09:35:21;;;;;;;99.78;50.47;;;;;;;14.07;nan;99249.53;4832801;29;20045;-65
2023/12/31 09:37:51;;;;;;;107.85;49.25;;;;;;;14.08;nan;99237.81;4832226;29;20708;-68
2023/12/31 09:40:21;;;;;;;92.00;46.05;;;;;;;14.13;nan;99240.69;4831139;29;20057;-70
2023/12/31 09:42:50;;;;;;;98.70;47.60;;;;;;;14.19;nan;99240.72;4832544;29;20050;-66
2023/12/31 09:45:24;;;;;;;96.22;46.13;;;;;;;14.19;nan;99235.41;4833650;29;20077;-68
2023/12/31 09:47:58;;;;;;;93.43;46.03;;;;;;;14.27;nan;99237.03;4828958;29;20064;-70
2023/12/31 09:50:27;;;;;;;;;;;;;;;14.08;nan;99235.16;4830844;29;20073;-68
2023/12/31 09:53:02;;;;;;;107.18;47.97;;;;;;;13.93;nan;99230.84;4829399;29;19928;-67
2023/12/31 09:55:34;;;;;;;96.10;46.08;;;;;;;14.02;nan;99223.50;4829083;29;20045;-69
2023/12/31 09:58:08;;;;;;;98.15;44.35;;;;;;;14.12;nan;99231.06;4829630;29;20062;-68
2023/12/31 10:00:38;;;;;;;100.10;46.83;;;;;;;14.17;nan;99224.13;4829327;29;20062;-67
2023/12/31 10:03:09;;;;;;;108.00;49.78;;;;;;;13.95;nan;99219.97;4829928;29;20130;-67
2023/12/31 10:05:42;;;;;;;105.68;48.38;;;;;;;14.02;nan;99220.81;4834089;29;20112;-66
2023/12/31 10:08:13;;;;;;;107.10;46.92;;;;;;;13.93;nan;99214.88;4822946;29;20046;-66
2023/12/31 10:10:43;;;;;;;107.25;49.22;;;;;;;13.96;nan;99208.31;4827727;29;20745;-68
2023/12/31 10:13:16;;;;;;;113.90;50.10;;;;;;;13.71;nan;99209.88;4833617;29;20059;-68
2023/12/31 10:15:45;;;;;;;120.88;51.05;;;;;;;13.87;nan;99206.84;4833886;29;20050;-68
2023/12/31 10:18:15;;;;;;;126.30;54.30;;;;;;;13.92;nan;99207.06;4829703;29;20096;-68
2023/12/31 10:20:44;;;;;;;123.85;52.47;;;;;;;13.71;nan;99208.03;4823214;29;20485;-68
2023/12/31 10:23:14;;;;;;;118.97;51.28;;;;;;;13.70;nan;99205.56;4830165;29;20054;-68
2023/12/31 10:25:44;;;;;;;119.82;52.05;;;;;;;13.77;nan;99199.25;4836665;29;20053;-65
2023/12/31 10:28:14;;;;;;;118.32;52.55;;;;;;;13.60;nan;99205.94;4840318;29;20060;-68
2023/12/31 10:30:43;;;;;;;122.75;54.58;;;;;;;13.71;nan;99199.25;4494752;29;9999805;-66
2023/12/31 10:33:13;;;;;;;131.20;54.53;;;;;;;13.75;nan;99195.97;4827694;29;20053;-67
2023/12/31 10:35:44;;;;;;;133.77;53.42;;;;;;;13.70;nan;99197.59;4832079;29;20063;-67
2023/12/31 10:38:14;;;;;;;127.32;53.47;;;;;;;13.37;nan;99197.44;4843850;29;20149;-67
2023/12/31 10:40:45;;;;;;;126.22;55.05;;;;;;;13.37;nan;99202.78;4848329;29;20081;-69
2023/12/31 10:43:18;;;;;;;129.95;56.65;;;;;;;13.58;nan;99204.53;4847897;29;20053;-66
2023/12/31 10:45:50;;;;;;;130.23;55.75;;;;;;;13.35;nan;99194.19;4837031;29;20169;-67
2023/12/31 10:48:23;;;;;;;133.45;55.90;;;;;;;13.53;nan;99201.63;4833315;29;20061;-65
2023/12/31 10:50:54;;;;;;;136.00;56.88;;;;;;;13.34;nan;99200.53;4836672;29;20045;-64
2023/12/31 10:53:26;;;;;;;127.47;54.90;;;;;;;13.40;nan;99197.91;4842872;29;20387;-65
2023/12/31 10:55:56;;;;;;;144.55;58.72;;;;;;;13.43;nan;99192.19;4841352;29;20046;-65
2023/12/31 10:58:26;;;;;;;131.13;58.45;;;;;;;13.29;nan;99198.44;4845826;29;20148;-64
2023/12/31 11:00:56;;;;;;;137.98;58.55;;;;;;;13.21;nan;99203.94;4834289;29;20050;-66
2023/12/31 11:03:32;;;;;;;136.90;59.45;;;;;;;13.13;nan;99198.78;4833103;29;20077;-66
2023/12/31 11:06:04;;;;;;;127.65;56.58;;;;;;;13.18;nan;99191.03;4833929;29;20054;-67
2023/12/31 11:08:35;;;;;;;124.72;56.47;;;;;;;13.04;nan;99189.28;4832323;29;20152;-67
2023/12/31 11:11:05;;;;;;;137.07;58.88;;;;;;;12.91;nan;99187.38;4833804;29;20462;-65
2023/12/31 11:13:39;;;;;;;129.25;56.88;;;;;;;12.98;nan;99190.06;4837311;29;20200;-63
2023/12/31 11:16:33;;;;;;;123.97;56.50;;;;;;;12.92;nan;99183.69;4835403;29;20321;-66
2023/12/31 11:19:34;;;;;;;129.10;58.00;;;;;;;13.04;nan;99186.63;4833534;29;20057;-66
2023/12/31 11:22:25;;;;;;;125.00;56.38;;;;;;;13.01;nan;99174.53;4834121;29;20149;-66
2023/12/31 11:24:57;;;;;;;127.90;56.42;;;;;;;13.01;nan;99173.75;4833200;29;20093;-67
2023/12/31 11:27:32;;;;;;;124.13;59.23;;;;;;;12.90;nan;99176.94;4826959;29;20098;-66
2023/12/31 11:30:03;;;;;;;115.93;55.53;;;;;;;13.00;nan;99177.41;4830592;29;20049;-67
2023/12/31 11:32:36;;;;;;;115.00;55.83;;;;;;;13.01;nan;99173.75;4830157;29;20054;-66
2023/12/31 11:35:06;;;;;;;129.60;59.42;;;;;;;12.80;nan;99177.28;4833330;29;20772;-66
2023/12/31 11:37:38;;;;;;;136.13;60.80;;;;;;;12.58;nan;99165.91;4834260;29;20054;-65
2023/12/31 11:40:09;;;;;;;134.97;59.27;;;;;;;12.34;nan;99176.13;4834967;29;20050;-66